sensor_id;sensor_type;location;lat;lon;timestamp;temperature;humidity
6293;DHT22;3179;54.350;10.102;2022-12-29T00:01:37;9.20;99.90
6293;DHT22;3179;54.350;10.102;2022-12-29T00:04:04;9.20;99.90
6293;DHT22;3179;54.350;10.102;2022-12-29T00:06:32;9.20;99.90
6293;DHT22;3179;54.350;10.102;2022-12-29T00:08:59;9.20;99.90
6293;DHT22;3179;54.350;10.102;2022-12-29T00:11:27;9.20;99.90
6293;DHT22;3179;54.350;10.102;2022-12-29T00:13:58;9.20;99.90
6293;DHT22;3179;54.350;10.102;2022-12-29T00:16:44;9.20;99.90
6293;DHT22;3179;54.350;10.102;2022-12-29T00:19:12;9.20;99.90
6293;DHT22;3179;54.350;10.102;2022-12-29T00:21:53;9.20;99.90
6293;DHT22;3179;54.350;10.102;2022-12-29T00:24:38;9.20;99.90
6293;DHT22;3179;54.350;10.102;2022-12-29T00:27:22;9.20;99.90
6293;DHT22;3179;54.350;10.102;2022-12-29T00:30:10;9.20;99.90
6293;DHT22;3179;54.350;10.102;2022-12-29T00:32:55;9.30;99.90
6293;DHT22;3179;54.350;10.102;2022-12-29T00:35:42;9.30;99.90
6293;DHT22;3179;54.350;10.102;2022-12-29T00:38:10;9.30;99.90
6293;DHT22;3179;54.350;10.102;2022-12-29T00:40:56;9.30;99.90
6293;DHT22;3179;54.350;10.102;2022-12-29T00:43:40;9.30;99.90
6293;DHT22;3179;54.350;10.102;2022-12-29T00:46:27;9.40;99.90
6293;DHT22;3179;54.350;10.102;2022-12-29T00:48:55;9.30;99.90
6293;DHT22;3179;54.350;10.102;2022-12-29T00:51:39;9.40;99.90
6293;DHT22;3179;54.350;10.102;2022-12-29T00:54:06;9.40;99.90
6293;DHT22;3179;54.350;10.102;2022-12-29T00:56:33;9.40;99.90
6293;DHT22;3179;54.350;10.102;2022-12-29T00:59:00;9.40;99.90
6293;DHT22;3179;54.350;10.102;2022-12-29T01:01:29;9.40;99.90
6293;DHT22;3179;54.350;10.102;2022-12-29T01:03:55;9.40;99.90
6293;DHT22;3179;54.350;10.102;2022-12-29T01:06:23;9.40;99.90
6293;DHT22;3179;54.350;10.102;2022-12-29T01:08:51;9.40;99.90
6293;DHT22;3179;54.350;10.102;2022-12-29T01:11:38;9.40;99.90
6293;DHT22;3179;54.350;10.102;2022-12-29T01:14:04;9.50;99.90
6293;DHT22;3179;54.350;10.102;2022-12-29T01:16:33;9.50;99.90
6293;DHT22;3179;54.350;10.102;2022-12-29T01:19:02;9.50;99.90
6293;DHT22;3179;54.350;10.102;2022-12-29T01:21:28;9.50;99.90
6293;DHT22;3179;54.350;10.102;2022-12-29T01:23:55;9.50;99.90
6293;DHT22;3179;54.350;10.102;2022-12-29T01:26:28;9.60;99.90
6293;DHT22;3179;54.350;10.102;2022-12-29T01:28:58;9.50;99.90
6293;DHT22;3179;54.350;10.102;2022-12-29T01:31:26;9.50;99.90
6293;DHT22;3179;54.350;10.102;2022-12-29T01:33:54;9.50;99.90
6293;DHT22;3179;54.350;10.102;2022-12-29T01:36:21;9.60;99.90
6293;DHT22;3179;54.350;10.102;2022-12-29T01:38:48;9.50;99.90
6293;DHT22;3179;54.350;10.102;2022-12-29T01:41:16;9.60;99.90
6293;DHT22;3179;54.350;10.102;2022-12-29T01:43:44;9.60;99.90
6293;DHT22;3179;54.350;10.102;2022-12-29T01:46:19;9.60;99.90
6293;DHT22;3179;54.350;10.102;2022-12-29T01:48:51;9.60;99.90
6293;DHT22;3179;54.350;10.102;2022-12-29T01:51:21;9.60;99.90
6293;DHT22;3179;54.350;10.102;2022-12-29T01:53:49;9.60;99.90
6293;DHT22;3179;54.350;10.102;2022-12-29T01:56:18;9.60;99.90
6293;DHT22;3179;54.350;10.102;2022-12-29T01:58:51;9.60;99.90
6293;DHT22;3179;54.350;10.102;2022-12-29T02:01:20;9.60;99.90
6293;DHT22;3179;54.350;10.102;2022-12-29T02:03:48;9.60;99.90
6293;DHT22;3179;54.350;10.102;2022-12-29T02:06:22;9.60;99.90
6293;DHT22;3179;54.350;10.102;2022-12-29T02:08:53;9.60;99.90
6293;DHT22;3179;54.350;10.102;2022-12-29T02:11:23;9.60;99.90
6293;DHT22;3179;54.350;10.102;2022-12-29T02:13:51;9.60;99.90
6293;DHT22;3179;54.350;10.102;2022-12-29T02:16:31;9.70;99.90
6293;DHT22;3179;54.350;10.102;2022-12-29T02:22:12;9.60;99.90
6293;DHT22;3179;54.350;10.102;2022-12-29T02:25:03;9.70;99.90
6293;DHT22;3179;54.350;10.102;2022-12-29T02:28:09;9.70;99.90
6293;DHT22;3179;54.350;10.102;2022-12-29T02:30:57;9.70;99.90
6293;DHT22;3179;54.350;10.102;2022-12-29T02:33:38;9.70;99.90
6293;DHT22;3179;54.350;10.102;2022-12-29T02:36:14;9.70;99.90
6293;DHT22;3179;54.350;10.102;2022-12-29T02:38:56;9.70;99.90
6293;DHT22;3179;54.350;10.102;2022-12-29T02:41:31;9.70;99.90
6293;DHT22;3179;54.350;10.102;2022-12-29T02:44:03;9.70;99.90
6293;DHT22;3179;54.350;10.102;2022-12-29T02:46:36;9.70;99.90
6293;DHT22;3179;54.350;10.102;2022-12-29T02:49:09;9.70;99.90
6293;DHT22;3179;54.350;10.102;2022-12-29T02:51:43;9.70;99.90
6293;DHT22;3179;54.350;10.102;2022-12-29T02:54:11;9.80;99.90
6293;DHT22;3179;54.350;10.102;2022-12-29T02:56:55;9.80;99.90
6293;DHT22;3179;54.350;10.102;2022-12-29T02:59:22;9.80;99.90
6293;DHT22;3179;54.350;10.102;2022-12-29T03:02:14;9.70;99.90
6293;DHT22;3179;54.350;10.102;2022-12-29T03:05:05;9.70;99.90
6293;DHT22;3179;54.350;10.102;2022-12-29T03:07:43;9.80;99.90
6293;DHT22;3179;54.350;10.102;2022-12-29T03:10:21;9.80;99.90
6293;DHT22;3179;54.350;10.102;2022-12-29T03:12:54;9.80;99.90
6293;DHT22;3179;54.350;10.102;2022-12-29T03:15:42;9.80;99.90
6293;DHT22;3179;54.350;10.102;2022-12-29T03:18:37;9.80;99.90
6293;DHT22;3179;54.350;10.102;2022-12-29T03:21:10;9.80;99.90
6293;DHT22;3179;54.350;10.102;2022-12-29T03:23:39;9.80;99.90
6293;DHT22;3179;54.350;10.102;2022-12-29T03:26:10;9.80;99.90
6293;DHT22;3179;54.350;10.102;2022-12-29T03:28:41;9.80;99.90
6293;DHT22;3179;54.350;10.102;2022-12-29T03:31:12;9.80;99.90
6293;DHT22;3179;54.350;10.102;2022-12-29T03:33:41;9.90;99.90
6293;DHT22;3179;54.350;10.102;2022-12-29T03:36:13;9.90;99.90
6293;DHT22;3179;54.350;10.102;2022-12-29T03:38:46;9.90;99.90
6293;DHT22;3179;54.350;10.102;2022-12-29T03:41:17;9.90;99.90
6293;DHT22;3179;54.350;10.102;2022-12-29T03:43:46;9.90;99.90
6293;DHT22;3179;54.350;10.102;2022-12-29T03:46:13;9.90;99.90
6293;DHT22;3179;54.350;10.102;2022-12-29T03:48:41;9.90;99.90
6293;DHT22;3179;54.350;10.102;2022-12-29T03:51:08;9.90;99.90
6293;DHT22;3179;54.350;10.102;2022-12-29T03:53:35;10.00;99.90
6293;DHT22;3179;54.350;10.102;2022-12-29T03:56:02;9.90;99.90
6293;DHT22;3179;54.350;10.102;2022-12-29T03:58:29;9.90;99.90
6293;DHT22;3179;54.350;10.102;2022-12-29T04:00:56;9.90;99.90
6293;DHT22;3179;54.350;10.102;2022-12-29T04:03:23;10.00;99.90
6293;DHT22;3179;54.350;10.102;2022-12-29T04:05:51;10.00;99.90
6293;DHT22;3179;54.350;10.102;2022-12-29T04:08:18;10.00;99.90
6293;DHT22;3179;54.350;10.102;2022-12-29T04:10:45;10.00;99.90
6293;DHT22;3179;54.350;10.102;2022-12-29T04:13:11;10.00;99.90
6293;DHT22;3179;54.350;10.102;2022-12-29T04:15:38;10.00;99.90
6293;DHT22;3179;54.350;10.102;2022-12-29T04:18:05;10.00;99.90
6293;DHT22;3179;54.350;10.102;2022-12-29T04:20:32;10.00;99.90
6293;DHT22;3179;54.350;10.102;2022-12-29T04:23:17;10.00;99.90
6293;DHT22;3179;54.350;10.102;2022-12-29T04:25:45;10.00;99.90
6293;DHT22;3179;54.350;10.102;2022-12-29T04:28:12;10.10;99.90
6293;DHT22;3179;54.350;10.102;2022-12-29T04:30:39;10.10;99.90
6293;DHT22;3179;54.350;10.102;2022-12-29T04:33:06;10.10;99.90
6293;DHT22;3179;54.350;10.102;2022-12-29T04:35:33;10.10;99.90
6293;DHT22;3179;54.350;10.102;2022-12-29T04:37:59;10.10;99.90
6293;DHT22;3179;54.350;10.102;2022-12-29T04:40:27;10.10;99.90
6293;DHT22;3179;54.350;10.102;2022-12-29T04:42:54;10.10;99.90
6293;DHT22;3179;54.350;10.102;2022-12-29T04:45:21;10.10;99.90
6293;DHT22;3179;54.350;10.102;2022-12-29T04:47:48;10.10;99.90
6293;DHT22;3179;54.350;10.102;2022-12-29T04:50:15;10.10;99.90
6293;DHT22;3179;54.350;10.102;2022-12-29T04:52:41;10.10;99.90
6293;DHT22;3179;54.350;10.102;2022-12-29T04:55:08;10.10;99.90
6293;DHT22;3179;54.350;10.102;2022-12-29T04:57:36;10.10;99.90
6293;DHT22;3179;54.350;10.102;2022-12-29T05:00:05;10.10;99.90
6293;DHT22;3179;54.350;10.102;2022-12-29T05:02:32;10.10;99.90
6293;DHT22;3179;54.350;10.102;2022-12-29T05:04:58;10.10;99.90
6293;DHT22;3179;54.350;10.102;2022-12-29T05:07:25;10.10;99.90
6293;DHT22;3179;54.350;10.102;2022-12-29T05:09:52;10.10;99.90
6293;DHT22;3179;54.350;10.102;2022-12-29T05:12:19;10.20;99.90
6293;DHT22;3179;54.350;10.102;2022-12-29T05:14:47;10.20;99.90
6293;DHT22;3179;54.350;10.102;2022-12-29T05:17:13;10.20;99.90
6293;DHT22;3179;54.350;10.102;2022-12-29T05:19:40;10.20;99.90
6293;DHT22;3179;54.350;10.102;2022-12-29T05:22:07;10.20;99.90
6293;DHT22;3179;54.350;10.102;2022-12-29T05:24:33;10.20;99.90
6293;DHT22;3179;54.350;10.102;2022-12-29T05:27:00;10.20;99.90
6293;DHT22;3179;54.350;10.102;2022-12-29T05:29:27;10.20;99.90
6293;DHT22;3179;54.350;10.102;2022-12-29T05:31:55;10.20;99.90
6293;DHT22;3179;54.350;10.102;2022-12-29T05:34:22;10.20;99.90
6293;DHT22;3179;54.350;10.102;2022-12-29T05:36:49;10.20;99.90
6293;DHT22;3179;54.350;10.102;2022-12-29T05:39:15;10.20;99.90
6293;DHT22;3179;54.350;10.102;2022-12-29T05:41:42;10.20;99.90
6293;DHT22;3179;54.350;10.102;2022-12-29T05:44:10;10.20;99.90
6293;DHT22;3179;54.350;10.102;2022-12-29T05:46:37;10.20;99.90
6293;DHT22;3179;54.350;10.102;2022-12-29T05:49:05;10.20;99.90
6293;DHT22;3179;54.350;10.102;2022-12-29T05:51:32;10.20;99.90
6293;DHT22;3179;54.350;10.102;2022-12-29T05:53:59;10.20;99.90
6293;DHT22;3179;54.350;10.102;2022-12-29T05:56:26;10.20;99.90
6293;DHT22;3179;54.350;10.102;2022-12-29T05:58:52;10.20;99.90
6293;DHT22;3179;54.350;10.102;2022-12-29T06:01:19;10.20;99.90
6293;DHT22;3179;54.350;10.102;2022-12-29T06:03:46;10.20;99.90
6293;DHT22;3179;54.350;10.102;2022-12-29T06:06:14;10.20;99.90
6293;DHT22;3179;54.350;10.102;2022-12-29T06:08:41;10.20;99.90
6293;DHT22;3179;54.350;10.102;2022-12-29T06:11:08;10.20;99.90
6293;DHT22;3179;54.350;10.102;2022-12-29T06:13:35;10.30;99.90
6293;DHT22;3179;54.350;10.102;2022-12-29T06:16:02;10.30;99.90
6293;DHT22;3179;54.350;10.102;2022-12-29T06:18:29;10.20;99.90
6293;DHT22;3179;54.350;10.102;2022-12-29T06:20:59;10.30;99.90
6293;DHT22;3179;54.350;10.102;2022-12-29T06:23:27;10.30;99.90
6293;DHT22;3179;54.350;10.102;2022-12-29T06:25:54;10.30;99.90
6293;DHT22;3179;54.350;10.102;2022-12-29T06:28:21;10.30;99.90
6293;DHT22;3179;54.350;10.102;2022-12-29T06:30:48;10.30;99.90
6293;DHT22;3179;54.350;10.102;2022-12-29T06:33:15;10.40;99.90
6293;DHT22;3179;54.350;10.102;2022-12-29T06:35:42;10.30;99.90
6293;DHT22;3179;54.350;10.102;2022-12-29T06:38:11;10.30;99.90
6293;DHT22;3179;54.350;10.102;2022-12-29T06:40:39;10.30;99.90
6293;DHT22;3179;54.350;10.102;2022-12-29T06:43:08;10.30;99.90
6293;DHT22;3179;54.350;10.102;2022-12-29T06:45:34;10.40;99.90
6293;DHT22;3179;54.350;10.102;2022-12-29T06:48:03;10.30;99.90
6293;DHT22;3179;54.350;10.102;2022-12-29T06:50:29;10.30;99.90
6293;DHT22;3179;54.350;10.102;2022-12-29T06:52:56;10.30;99.90
6293;DHT22;3179;54.350;10.102;2022-12-29T06:55:23;10.30;99.90
6293;DHT22;3179;54.350;10.102;2022-12-29T06:57:54;10.40;99.90
6293;DHT22;3179;54.350;10.102;2022-12-29T07:00:20;10.40;99.90
6293;DHT22;3179;54.350;10.102;2022-12-29T07:02:47;10.40;99.90
6293;DHT22;3179;54.350;10.102;2022-12-29T07:05:14;10.40;99.90
6293;DHT22;3179;54.350;10.102;2022-12-29T07:07:41;10.40;99.90
6293;DHT22;3179;54.350;10.102;2022-12-29T07:10:08;10.40;99.90
6293;DHT22;3179;54.350;10.102;2022-12-29T07:12:35;10.40;99.90
6293;DHT22;3179;54.350;10.102;2022-12-29T07:15:03;10.40;99.90
6293;DHT22;3179;54.350;10.102;2022-12-29T07:17:30;10.40;99.90
6293;DHT22;3179;54.350;10.102;2022-12-29T07:19:57;10.40;99.90
6293;DHT22;3179;54.350;10.102;2022-12-29T07:22:23;10.50;99.90
6293;DHT22;3179;54.350;10.102;2022-12-29T07:24:50;10.40;99.90
6293;DHT22;3179;54.350;10.102;2022-12-29T07:27:17;10.40;99.90
6293;DHT22;3179;54.350;10.102;2022-12-29T07:29:44;10.40;99.90
6293;DHT22;3179;54.350;10.102;2022-12-29T07:32:12;10.40;99.90
6293;DHT22;3179;54.350;10.102;2022-12-29T07:34:38;10.50;99.90
6293;DHT22;3179;54.350;10.102;2022-12-29T07:37:05;10.40;99.90
6293;DHT22;3179;54.350;10.102;2022-12-29T07:39:32;10.50;99.90
6293;DHT22;3179;54.350;10.102;2022-12-29T07:41:59;10.50;99.90
6293;DHT22;3179;54.350;10.102;2022-12-29T07:44:26;10.40;99.90
6293;DHT22;3179;54.350;10.102;2022-12-29T07:46:52;10.40;99.90
6293;DHT22;3179;54.350;10.102;2022-12-29T07:49:21;10.40;99.90
6293;DHT22;3179;54.350;10.102;2022-12-29T07:51:47;10.50;99.90
6293;DHT22;3179;54.350;10.102;2022-12-29T07:54:14;10.50;99.90
6293;DHT22;3179;54.350;10.102;2022-12-29T07:56:43;10.50;99.90
6293;DHT22;3179;54.350;10.102;2022-12-29T07:59:10;10.50;99.90
6293;DHT22;3179;54.350;10.102;2022-12-29T08:01:38;10.50;99.90
6293;DHT22;3179;54.350;10.102;2022-12-29T08:04:04;10.50;99.90
6293;DHT22;3179;54.350;10.102;2022-12-29T08:06:33;10.50;99.90
6293;DHT22;3179;54.350;10.102;2022-12-29T08:08:59;10.50;99.90
6293;DHT22;3179;54.350;10.102;2022-12-29T08:11:27;10.50;99.90
6293;DHT22;3179;54.350;10.102;2022-12-29T08:13:54;10.50;99.90
6293;DHT22;3179;54.350;10.102;2022-12-29T08:16:24;10.50;99.90
6293;DHT22;3179;54.350;10.102;2022-12-29T08:18:51;10.50;99.90
6293;DHT22;3179;54.350;10.102;2022-12-29T08:21:19;10.50;99.90
6293;DHT22;3179;54.350;10.102;2022-12-29T08:23:47;10.50;99.90
6293;DHT22;3179;54.350;10.102;2022-12-29T08:26:14;10.50;99.90
6293;DHT22;3179;54.350;10.102;2022-12-29T08:28:40;10.50;99.90
6293;DHT22;3179;54.350;10.102;2022-12-29T08:31:07;10.50;99.90
6293;DHT22;3179;54.350;10.102;2022-12-29T08:33:34;10.50;99.90
6293;DHT22;3179;54.350;10.102;2022-12-29T08:36:02;10.50;99.90
6293;DHT22;3179;54.350;10.102;2022-12-29T08:38:29;10.50;99.90
6293;DHT22;3179;54.350;10.102;2022-12-29T08:40:59;10.50;99.90
6293;DHT22;3179;54.350;10.102;2022-12-29T08:43:26;10.50;99.90
6293;DHT22;3179;54.350;10.102;2022-12-29T08:45:53;10.50;99.90
6293;DHT22;3179;54.350;10.102;2022-12-29T08:48:20;10.50;99.90
6293;DHT22;3179;54.350;10.102;2022-12-29T08:50:48;10.50;99.90
6293;DHT22;3179;54.350;10.102;2022-12-29T08:53:14;10.50;99.90
6293;DHT22;3179;54.350;10.102;2022-12-29T08:55:41;10.50;99.90
6293;DHT22;3179;54.350;10.102;2022-12-29T08:58:09;10.50;99.90
6293;DHT22;3179;54.350;10.102;2022-12-29T09:00:39;10.50;99.90
6293;DHT22;3179;54.350;10.102;2022-12-29T09:03:06;10.50;99.90
6293;DHT22;3179;54.350;10.102;2022-12-29T09:05:33;10.50;99.90
6293;DHT22;3179;54.350;10.102;2022-12-29T09:08:00;10.50;99.90
6293;DHT22;3179;54.350;10.102;2022-12-29T09:10:26;10.50;99.90
6293;DHT22;3179;54.350;10.102;2022-12-29T09:12:53;10.40;99.90
6293;DHT22;3179;54.350;10.102;2022-12-29T09:15:21;10.40;99.90
6293;DHT22;3179;54.350;10.102;2022-12-29T09:17:48;10.50;99.90
6293;DHT22;3179;54.350;10.102;2022-12-29T09:20:17;10.50;99.90
6293;DHT22;3179;54.350;10.102;2022-12-29T09:22:45;10.50;99.90
6293;DHT22;3179;54.350;10.102;2022-12-29T09:25:12;10.60;99.90
6293;DHT22;3179;54.350;10.102;2022-12-29T09:27:39;10.60;99.90
6293;DHT22;3179;54.350;10.102;2022-12-29T09:30:08;10.60;99.90
6293;DHT22;3179;54.350;10.102;2022-12-29T09:32:39;10.60;99.90
6293;DHT22;3179;54.350;10.102;2022-12-29T09:35:06;10.60;99.90
6293;DHT22;3179;54.350;10.102;2022-12-29T09:37:33;10.60;99.90
6293;DHT22;3179;54.350;10.102;2022-12-29T09:40:00;10.70;99.90
6293;DHT22;3179;54.350;10.102;2022-12-29T09:42:31;10.70;99.90
6293;DHT22;3179;54.350;10.102;2022-12-29T09:45:08;10.70;99.90
6293;DHT22;3179;54.350;10.102;2022-12-29T09:47:38;10.70;99.90
6293;DHT22;3179;54.350;10.102;2022-12-29T09:50:11;10.70;99.90
6293;DHT22;3179;54.350;10.102;2022-12-29T09:52:44;10.60;99.90
6293;DHT22;3179;54.350;10.102;2022-12-29T09:55:16;10.70;99.90
6293;DHT22;3179;54.350;10.102;2022-12-29T09:57:46;10.70;99.90
6293;DHT22;3179;54.350;10.102;2022-12-29T10:00:16;10.70;99.90
6293;DHT22;3179;54.350;10.102;2022-12-29T10:02:48;10.80;99.90
6293;DHT22;3179;54.350;10.102;2022-12-29T10:05:29;10.80;99.90
6293;DHT22;3179;54.350;10.102;2022-12-29T10:08:10;10.80;99.90
6293;DHT22;3179;54.350;10.102;2022-12-29T10:10:42;10.80;99.90
6293;DHT22;3179;54.350;10.102;2022-12-29T10:13:21;10.90;99.90
6293;DHT22;3179;54.350;10.102;2022-12-29T10:15:58;10.90;99.90
6293;DHT22;3179;54.350;10.102;2022-12-29T10:18:42;11.00;99.90
6293;DHT22;3179;54.350;10.102;2022-12-29T10:21:20;11.00;99.90
6293;DHT22;3179;54.350;10.102;2022-12-29T10:23:51;11.00;99.90
6293;DHT22;3179;54.350;10.102;2022-12-29T10:26:20;11.00;99.90
6293;DHT22;3179;54.350;10.102;2022-12-29T10:28:50;10.90;99.90
6293;DHT22;3179;54.350;10.102;2022-12-29T10:31:22;10.90;99.90
6293;DHT22;3179;54.350;10.102;2022-12-29T10:33:53;10.90;99.90
6293;DHT22;3179;54.350;10.102;2022-12-29T10:36:28;10.90;99.90
6293;DHT22;3179;54.350;10.102;2022-12-29T10:39:03;10.90;99.90
6293;DHT22;3179;54.350;10.102;2022-12-29T10:41:36;10.90;99.90
6293;DHT22;3179;54.350;10.102;2022-12-29T10:44:04;10.90;99.90
6293;DHT22;3179;54.350;10.102;2022-12-29T10:46:34;11.00;99.90
6293;DHT22;3179;54.350;10.102;2022-12-29T10:49:04;11.00;99.90
6293;DHT22;3179;54.350;10.102;2022-12-29T10:51:36;11.00;99.90
6293;DHT22;3179;54.350;10.102;2022-12-29T10:54:06;11.00;99.90
6293;DHT22;3179;54.350;10.102;2022-12-29T10:56:40;11.00;99.90
6293;DHT22;3179;54.350;10.102;2022-12-29T10:59:15;11.00;99.90
6293;DHT22;3179;54.350;10.102;2022-12-29T11:01:52;11.00;99.90
6293;DHT22;3179;54.350;10.102;2022-12-29T11:04:35;11.00;99.90
6293;DHT22;3179;54.350;10.102;2022-12-29T11:07:07;11.00;99.90
6293;DHT22;3179;54.350;10.102;2022-12-29T11:09:39;11.10;99.90
6293;DHT22;3179;54.350;10.102;2022-12-29T11:12:26;11.10;99.90
6293;DHT22;3179;54.350;10.102;2022-12-29T11:15:12;11.20;99.90
6293;DHT22;3179;54.350;10.102;2022-12-29T11:17:44;11.20;99.90
6293;DHT22;3179;54.350;10.102;2022-12-29T11:20:36;11.10;99.90
6293;DHT22;3179;54.350;10.102;2022-12-29T11:23:16;11.10;99.90
6293;DHT22;3179;54.350;10.102;2022-12-29T11:26:07;11.10;99.90
6293;DHT22;3179;54.350;10.102;2022-12-29T11:28:35;11.00;99.90
6293;DHT22;3179;54.350;10.102;2022-12-29T11:31:04;11.00;99.90
6293;DHT22;3179;54.350;10.102;2022-12-29T11:33:33;11.00;99.90
6293;DHT22;3179;54.350;10.102;2022-12-29T11:36:05;11.00;99.90
6293;DHT22;3179;54.350;10.102;2022-12-29T11:38:37;11.00;99.90
6293;DHT22;3179;54.350;10.102;2022-12-29T11:41:06;11.00;99.90
6293;DHT22;3179;54.350;10.102;2022-12-29T11:43:34;11.00;99.90
6293;DHT22;3179;54.350;10.102;2022-12-29T11:46:04;11.00;99.90
6293;DHT22;3179;54.350;10.102;2022-12-29T11:48:37;11.00;99.90
6293;DHT22;3179;54.350;10.102;2022-12-29T11:51:07;11.00;99.90
6293;DHT22;3179;54.350;10.102;2022-12-29T11:53:42;11.00;99.90
6293;DHT22;3179;54.350;10.102;2022-12-29T11:56:13;11.00;99.90
6293;DHT22;3179;54.350;10.102;2022-12-29T11:58:42;11.00;99.90
6293;DHT22;3179;54.350;10.102;2022-12-29T12:01:15;11.00;99.90
6293;DHT22;3179;54.350;10.102;2022-12-29T12:03:47;11.00;99.90
6293;DHT22;3179;54.350;10.102;2022-12-29T12:06:17;11.00;99.90
6293;DHT22;3179;54.350;10.102;2022-12-29T12:08:54;11.00;99.90
6293;DHT22;3179;54.350;10.102;2022-12-29T12:11:26;11.00;99.90
6293;DHT22;3179;54.350;10.102;2022-12-29T12:14:01;11.10;99.90
6293;DHT22;3179;54.350;10.102;2022-12-29T12:16:34;11.10;99.90
6293;DHT22;3179;54.350;10.102;2022-12-29T12:19:09;11.10;99.90
6293;DHT22;3179;54.350;10.102;2022-12-29T12:21:41;11.00;99.90
6293;DHT22;3179;54.350;10.102;2022-12-29T12:24:34;10.90;99.90
6293;DHT22;3179;54.350;10.102;2022-12-29T12:27:07;10.90;99.90
6293;DHT22;3179;54.350;10.102;2022-12-29T12:29:40;10.90;99.90
6293;DHT22;3179;54.350;10.102;2022-12-29T12:32:12;10.90;99.90
6293;DHT22;3179;54.350;10.102;2022-12-29T12:34:42;10.90;99.90
6293;DHT22;3179;54.350;10.102;2022-12-29T12:37:28;10.80;99.90
6293;DHT22;3179;54.350;10.102;2022-12-29T12:40:17;10.80;99.90
6293;DHT22;3179;54.350;10.102;2022-12-29T12:42:51;10.80;99.90
6293;DHT22;3179;54.350;10.102;2022-12-29T12:45:43;10.80;99.90
6293;DHT22;3179;54.350;10.102;2022-12-29T12:48:24;10.70;99.90
6293;DHT22;3179;54.350;10.102;2022-12-29T12:50:59;10.70;99.90
6293;DHT22;3179;54.350;10.102;2022-12-29T12:53:42;10.70;99.90
6293;DHT22;3179;54.350;10.102;2022-12-29T12:56:28;10.70;99.90
6293;DHT22;3179;54.350;10.102;2022-12-29T12:59:02;10.60;99.90
6293;DHT22;3179;54.350;10.102;2022-12-29T13:01:38;10.60;99.90
6293;DHT22;3179;54.350;10.102;2022-12-29T13:04:34;10.60;99.90
6293;DHT22;3179;54.350;10.102;2022-12-29T13:07:13;10.60;99.90
6293;DHT22;3179;54.350;10.102;2022-12-29T13:09:54;10.60;99.90
6293;DHT22;3179;54.350;10.102;2022-12-29T13:12:35;10.60;99.90
6293;DHT22;3179;54.350;10.102;2022-12-29T13:15:12;10.60;99.90
6293;DHT22;3179;54.350;10.102;2022-12-29T13:17:45;10.60;99.90
6293;DHT22;3179;54.350;10.102;2022-12-29T13:20:23;10.60;99.90
6293;DHT22;3179;54.350;10.102;2022-12-29T13:22:57;10.60;99.90
6293;DHT22;3179;54.350;10.102;2022-12-29T13:25:33;10.60;99.90
6293;DHT22;3179;54.350;10.102;2022-12-29T13:28:13;10.60;99.90
6293;DHT22;3179;54.350;10.102;2022-12-29T13:30:49;10.60;99.90
6293;DHT22;3179;54.350;10.102;2022-12-29T13:33:22;10.60;99.90
6293;DHT22;3179;54.350;10.102;2022-12-29T13:35:56;10.60;99.90
6293;DHT22;3179;54.350;10.102;2022-12-29T13:38:30;10.60;99.90
6293;DHT22;3179;54.350;10.102;2022-12-29T13:41:03;10.50;99.90
6293;DHT22;3179;54.350;10.102;2022-12-29T13:43:33;10.50;99.90
6293;DHT22;3179;54.350;10.102;2022-12-29T13:46:06;10.50;99.90
6293;DHT22;3179;54.350;10.102;2022-12-29T13:48:39;10.50;99.90
6293;DHT22;3179;54.350;10.102;2022-12-29T13:51:08;10.50;99.90
6293;DHT22;3179;54.350;10.102;2022-12-29T13:53:47;10.50;99.90
6293;DHT22;3179;54.350;10.102;2022-12-29T13:56:22;10.50;99.90
6293;DHT22;3179;54.350;10.102;2022-12-29T13:58:54;10.50;99.90
6293;DHT22;3179;54.350;10.102;2022-12-29T14:01:27;10.50;99.90
6293;DHT22;3179;54.350;10.102;2022-12-29T14:03:57;10.50;99.90
6293;DHT22;3179;54.350;10.102;2022-12-29T14:06:25;10.50;99.90
6293;DHT22;3179;54.350;10.102;2022-12-29T14:08:55;10.50;99.90
6293;DHT22;3179;54.350;10.102;2022-12-29T14:11:30;10.50;99.90
6293;DHT22;3179;54.350;10.102;2022-12-29T14:13:57;10.50;99.90
6293;DHT22;3179;54.350;10.102;2022-12-29T14:16:31;10.50;99.90
6293;DHT22;3179;54.350;10.102;2022-12-29T14:19:12;10.50;99.90
6293;DHT22;3179;54.350;10.102;2022-12-29T14:21:50;10.50;99.90
6293;DHT22;3179;54.350;10.102;2022-12-29T14:24:32;10.40;99.90
6293;DHT22;3179;54.350;10.102;2022-12-29T14:27:44;10.40;99.90
6293;DHT22;3179;54.350;10.102;2022-12-29T14:33:13;10.40;99.90
6293;DHT22;3179;54.350;10.102;2022-12-29T14:35:43;10.40;99.90
6293;DHT22;3179;54.350;10.102;2022-12-29T14:38:16;10.40;99.90
6293;DHT22;3179;54.350;10.102;2022-12-29T14:40:44;10.40;99.90
6293;DHT22;3179;54.350;10.102;2022-12-29T14:43:18;10.40;99.90
6293;DHT22;3179;54.350;10.102;2022-12-29T14:45:53;10.40;99.90
6293;DHT22;3179;54.350;10.102;2022-12-29T14:48:36;10.40;99.90
6293;DHT22;3179;54.350;10.102;2022-12-29T14:51:31;10.40;99.90
6293;DHT22;3179;54.350;10.102;2022-12-29T14:53:58;10.40;99.90
6293;DHT22;3179;54.350;10.102;2022-12-29T14:56:26;10.40;99.90
6293;DHT22;3179;54.350;10.102;2022-12-29T14:58:57;10.40;99.90
6293;DHT22;3179;54.350;10.102;2022-12-29T15:01:38;10.40;99.90
6293;DHT22;3179;54.350;10.102;2022-12-29T15:04:15;10.40;99.90
6293;DHT22;3179;54.350;10.102;2022-12-29T15:06:43;10.40;99.90
6293;DHT22;3179;54.350;10.102;2022-12-29T15:09:19;10.40;99.90
6293;DHT22;3179;54.350;10.102;2022-12-29T15:11:52;10.40;99.90
6293;DHT22;3179;54.350;10.102;2022-12-29T15:14:35;10.40;99.90
6293;DHT22;3179;54.350;10.102;2022-12-29T15:17:11;10.40;99.90
6293;DHT22;3179;54.350;10.102;2022-12-29T15:19:48;10.40;99.90
6293;DHT22;3179;54.350;10.102;2022-12-29T15:22:15;10.30;99.90
6293;DHT22;3179;54.350;10.102;2022-12-29T15:24:42;10.30;99.90
6293;DHT22;3179;54.350;10.102;2022-12-29T15:27:13;10.30;99.90
6293;DHT22;3179;54.350;10.102;2022-12-29T15:29:44;10.30;99.90
6293;DHT22;3179;54.350;10.102;2022-12-29T15:32:20;10.30;99.90
6293;DHT22;3179;54.350;10.102;2022-12-29T15:34:49;10.30;99.90
6293;DHT22;3179;54.350;10.102;2022-12-29T15:37:19;10.30;99.90
6293;DHT22;3179;54.350;10.102;2022-12-29T15:39:47;10.30;99.90
6293;DHT22;3179;54.350;10.102;2022-12-29T15:42:30;10.30;99.90
6293;DHT22;3179;54.350;10.102;2022-12-29T15:45:03;10.30;99.90
6293;DHT22;3179;54.350;10.102;2022-12-29T15:47:31;10.30;99.90
6293;DHT22;3179;54.350;10.102;2022-12-29T15:50:02;10.20;99.90
6293;DHT22;3179;54.350;10.102;2022-12-29T15:52:31;10.20;99.90
6293;DHT22;3179;54.350;10.102;2022-12-29T15:54:59;10.20;99.90
6293;DHT22;3179;54.350;10.102;2022-12-29T15:57:29;10.20;99.90
6293;DHT22;3179;54.350;10.102;2022-12-29T15:59:58;10.20;99.90
6293;DHT22;3179;54.350;10.102;2022-12-29T16:02:28;10.20;99.90
6293;DHT22;3179;54.350;10.102;2022-12-29T16:04:55;10.20;99.90
6293;DHT22;3179;54.350;10.102;2022-12-29T16:07:25;10.20;99.90
6293;DHT22;3179;54.350;10.102;2022-12-29T16:09:55;10.20;99.90
6293;DHT22;3179;54.350;10.102;2022-12-29T16:12:25;10.10;99.90
6293;DHT22;3179;54.350;10.102;2022-12-29T16:14:55;10.20;99.90
6293;DHT22;3179;54.350;10.102;2022-12-29T16:17:25;10.20;99.90
6293;DHT22;3179;54.350;10.102;2022-12-29T16:19:57;10.10;99.90
6293;DHT22;3179;54.350;10.102;2022-12-29T16:22:28;10.20;99.90
6293;DHT22;3179;54.350;10.102;2022-12-29T16:24:57;10.20;99.90